sensor_id;sensor_type;location;lat;lon;timestamp;pressure;altitude;pressure_sealevel;temperature;humidity
25638;BME280;13496;51.040;13.680;2023-03-04T00:03:04;100251.75;;;15.91;54.34
25638;BME280;13496;51.040;13.680;2023-03-04T00:08:07;100247.47;;;15.90;54.40
25638;BME280;13496;51.040;13.680;2023-03-04T00:13:09;100250.09;;;15.90;54.28
25638;BME280;13496;51.040;13.680;2023-03-04T00:18:10;100245.53;;;15.92;54.41
25638;BME280;13496;51.040;13.680;2023-03-04T00:23:12;100230.00;;;15.91;54.34
25638;BME280;13496;51.040;13.680;2023-03-04T00:28:14;100232.44;;;15.92;54.21
25638;BME280;13496;51.040;13.680;2023-03-04T00:33:16;100223.28;;;15.88;54.32
25638;BME280;13496;51.040;13.680;2023-03-04T00:38:17;100223.28;;;15.88;54.24
25638;BME280;13496;51.040;13.680;2023-03-04T00:43:19;100225.91;;;15.88;54.21
25638;BME280;13496;51.040;13.680;2023-03-04T00:48:21;100219.84;;;15.88;54.27
25638;BME280;13496;51.040;13.680;2023-03-04T00:53:23;100208.56;;;15.87;54.12
25638;BME280;13496;51.040;13.680;2023-03-04T00:58:24;100209.53;;;15.86;54.17
25638;BME280;13496;51.040;13.680;2023-03-04T01:03:26;100207.59;;;15.88;54.05
25638;BME280;13496;51.040;13.680;2023-03-04T01:08:31;100199.22;;;15.85;54.21
25638;BME280;13496;51.040;13.680;2023-03-04T01:13:33;100203.34;;;15.87;54.04
25638;BME280;13496;51.040;13.680;2023-03-04T01:18:36;100196.63;;;15.85;53.99
25638;BME280;13496;51.040;13.680;2023-03-04T01:23:37;100182.72;;;15.84;54.35
25638;BME280;13496;51.040;13.680;2023-03-04T01:28:39;100172.25;;;15.84;54.06
25638;BME280;13496;51.040;13.680;2023-03-04T01:33:41;100160.97;;;15.84;54.08
25638;BME280;13496;51.040;13.680;2023-03-04T01:38:44;100160.13;;;15.83;53.99
25638;BME280;13496;51.040;13.680;2023-03-04T01:43:46;100160.13;;;15.83;54.02
25638;BME280;13496;51.040;13.680;2023-03-04T01:48:48;100145.59;;;15.81;54.05
25638;BME280;13496;51.040;13.680;2023-03-04T01:53:50;100149.84;;;15.82;54.07
25638;BME280;13496;51.040;13.680;2023-03-04T01:59:43;100140.34;;;15.81;54.01
25638;BME280;13496;51.040;13.680;2023-03-04T02:04:38;100140.19;;;15.82;54.05
25638;BME280;13496;51.040;13.680;2023-03-04T02:09:40;100131.69;;;15.80;53.97
25638;BME280;13496;51.040;13.680;2023-03-04T02:14:42;100132.50;;;15.81;54.20
25638;BME280;13496;51.040;13.680;2023-03-04T02:19:57;100120.56;;;15.78;53.98
25638;BME280;13496;51.040;13.680;2023-03-04T02:25:07;100116.13;;;15.79;53.89
25638;BME280;13496;51.040;13.680;2023-03-04T02:30:21;100122.19;;;15.79;54.03
25638;BME280;13496;51.040;13.680;2023-03-04T02:35:24;100116.31;;;15.77;54.00
25638;BME280;13496;51.040;13.680;2023-03-04T02:40:32;100104.22;;;15.76;53.99
25638;BME280;13496;51.040;13.680;2023-03-04T02:45:42;100112.06;;;15.76;54.10
25638;BME280;13496;51.040;13.680;2023-03-04T02:50:48;100094.56;;;15.77;53.93
25638;BME280;13496;51.040;13.680;2023-03-04T02:55:50;100094.41;;;15.78;53.86
25638;BME280;13496;51.040;13.680;2023-03-04T03:00:53;100099.63;;;15.78;53.76
25638;BME280;13496;51.040;13.680;2023-03-04T03:05:55;100090.78;;;15.79;53.71
25638;BME280;13496;51.040;13.680;2023-03-04T03:10:57;100082.31;;;15.77;53.81
25638;BME280;13496;51.040;13.680;2023-03-04T03:16:00;100082.63;;;15.74;53.89
25638;BME280;13496;51.040;13.680;2023-03-04T03:21:02;100079.00;;;15.75;53.71
25638;BME280;13496;51.040;13.680;2023-03-04T03:26:04;100080.00;;;15.74;53.71
25638;BME280;13496;51.040;13.680;2023-03-04T03:31:06;100074.59;;;15.76;53.71
25638;BME280;13496;51.040;13.680;2023-03-04T03:36:08;100077.38;;;15.74;53.68
25638;BME280;13496;51.040;13.680;2023-03-04T03:41:10;100061.03;;;15.72;53.65
25638;BME280;13496;51.040;13.680;2023-03-04T03:46:11;100060.69;;;15.75;53.77
25638;BME280;13496;51.040;13.680;2023-03-04T03:51:13;100057.75;;;15.70;53.80
25638;BME280;13496;51.040;13.680;2023-03-04T03:56:15;100063.63;;;15.72;53.75
25638;BME280;13496;51.040;13.680;2023-03-04T04:01:16;100060.38;;;15.70;53.64
25638;BME280;13496;51.040;13.680;2023-03-04T04:06:18;100066.25;;;15.72;53.68
25638;BME280;13496;51.040;13.680;2023-03-04T04:11:20;100063.63;;;15.72;53.70
25638;BME280;13496;51.040;13.680;2023-03-04T04:16:22;100065.63;;;15.70;53.65
25638;BME280;13496;51.040;13.680;2023-03-04T04:21:24;100070.84;;;15.70;53.80
25638;BME280;13496;51.040;13.680;2023-03-04T04:26:26;100068.22;;;15.70;53.72
25638;BME280;13496;51.040;13.680;2023-03-04T04:31:28;100065.94;;;15.67;53.84
25638;BME280;13496;51.040;13.680;2023-03-04T04:36:29;100063.16;;;15.68;53.71
25638;BME280;13496;51.040;13.680;2023-03-04T04:41:36;100068.41;;;15.68;53.71
25638;BME280;13496;51.040;13.680;2023-03-04T04:46:39;100064.13;;;15.67;53.66
25638;BME280;13496;51.040;13.680;2023-03-04T04:51:41;100060.97;;;15.64;53.84
25638;BME280;13496;51.040;13.680;2023-03-04T04:56:43;100060.69;;;15.67;53.57
25638;BME280;13496;51.040;13.680;2023-03-04T05:01:44;100053.03;;;15.65;53.74
25638;BME280;13496;51.040;13.680;2023-03-04T05:06:46;100054.78;;;15.65;53.67
25638;BME280;13496;51.040;13.680;2023-03-04T05:11:48;100052.19;;;15.65;53.56
25638;BME280;13496;51.040;13.680;2023-03-04T05:16:50;100054.94;;;15.63;53.62
25638;BME280;13496;51.040;13.680;2023-03-04T05:21:53;100054.13;;;15.63;53.50
25638;BME280;13496;51.040;13.680;2023-03-04T05:26:54;100050.41;;;15.65;53.52
25638;BME280;13496;51.040;13.680;2023-03-04T05:31:56;100038.44;;;15.63;53.57
25638;BME280;13496;51.040;13.680;2023-03-04T05:36:58;100033.38;;;15.61;53.45
25638;BME280;13496;51.040;13.680;2023-03-04T05:41:59;100029.91;;;15.61;53.53
25638;BME280;13496;51.040;13.680;2023-03-04T05:47:01;100025.66;;;15.60;53.45
25638;BME280;13496;51.040;13.680;2023-03-04T05:52:03;100026.66;;;15.59;53.62
25638;BME280;13496;51.040;13.680;2023-03-04T05:57:05;100019.44;;;15.61;53.51
25638;BME280;13496;51.040;13.680;2023-03-04T06:02:06;100017.81;;;15.60;53.42
25638;BME280;13496;51.040;13.680;2023-03-04T06:07:08;100023.06;;;15.60;53.29
25638;BME280;13496;51.040;13.680;2023-03-04T06:12:11;100026.00;;;15.57;53.30
25638;BME280;13496;51.040;13.680;2023-03-04T06:17:13;100021.44;;;15.59;53.41
25638;BME280;13496;51.040;13.680;2023-03-04T06:22:15;100010.16;;;15.58;53.43
25638;BME280;13496;51.040;13.680;2023-03-04T06:27:16;100017.00;;;15.59;53.35
25638;BME280;13496;51.040;13.680;2023-03-04T06:32:18;100014.22;;;15.61;53.41
25638;BME280;13496;51.040;13.680;2023-03-04T06:37:20;100014.56;;;15.58;53.43
25638;BME280;13496;51.040;13.680;2023-03-04T06:42:21;100009.97;;;15.60;53.34
25638;BME280;13496;51.040;13.680;2023-03-04T06:47:23;100010.66;;;15.62;53.24
25638;BME280;13496;51.040;13.680;2023-03-04T06:52:25;100017.50;;;15.63;53.19
25638;BME280;13496;51.040;13.680;2023-03-04T06:57:26;100017.03;;;15.67;52.96
25638;BME280;13496;51.040;13.680;2023-03-04T07:02:28;100013.28;;;15.70;53.00
25638;BME280;13496;51.040;13.680;2023-03-04T07:07:30;100012.31;;;15.71;52.90
25638;BME280;13496;51.040;13.680;2023-03-04T07:12:31;100015.59;;;15.73;52.81
25638;BME280;13496;51.040;13.680;2023-03-04T07:17:33;100012.97;;;15.73;52.67
25638;BME280;13496;51.040;13.680;2023-03-04T07:22:35;100012.97;;;15.73;52.57
25638;BME280;13496;51.040;13.680;2023-03-04T07:27:36;100008.88;;;15.70;52.59
25638;BME280;13496;51.040;13.680;2023-03-04T07:32:41;100008.06;;;15.70;52.68
25638;BME280;13496;51.040;13.680;2023-03-04T07:37:43;100006.94;;;15.72;52.78
25638;BME280;13496;51.040;13.680;2023-03-04T07:42:52;100006.94;;;15.72;52.76
25638;BME280;13496;51.040;13.680;2023-03-04T07:47:54;100003.31;;;15.73;52.90
25638;BME280;13496;51.040;13.680;2023-03-04T07:52:55;100000.53;;;15.75;52.66
25638;BME280;13496;51.040;13.680;2023-03-04T07:57:57;100004.63;;;15.78;52.67
25638;BME280;13496;51.040;13.680;2023-03-04T08:02:58;99996.78;;;15.78;52.61
25638;BME280;13496;51.040;13.680;2023-03-04T08:08:00;99991.56;;;15.78;52.69
25638;BME280;13496;51.040;13.680;2023-03-04T08:13:02;99988.75;;;15.79;52.29
25638;BME280;13496;51.040;13.680;2023-03-04T08:18:03;99978.97;;;15.81;52.18
25638;BME280;13496;51.040;13.680;2023-03-04T08:23:05;99981.56;;;15.81;51.83
25638;BME280;13496;51.040;13.680;2023-03-04T08:28:08;99984.69;;;15.85;52.26
25638;BME280;13496;51.040;13.680;2023-03-04T08:33:10;99983.88;;;15.84;51.33
25638;BME280;13496;51.040;13.680;2023-03-04T08:38:11;99977.47;;;15.87;51.81
25638;BME280;13496;51.040;13.680;2023-03-04T08:43:13;99969.47;;;15.88;51.60
25638;BME280;13496;51.040;13.680;2023-03-04T08:48:15;99971.09;;;15.89;51.56
25638;BME280;13496;51.040;13.680;2023-03-04T08:53:18;99974.38;;;15.91;51.79
25638;BME280;13496;51.040;13.680;2023-03-04T08:58:20;99970.78;;;15.92;51.76
25638;BME280;13496;51.040;13.680;2023-03-04T09:03:22;99968.16;;;15.92;51.93
25638;BME280;13496;51.040;13.680;2023-03-04T09:08:23;99974.22;;;15.93;51.46
25638;BME280;13496;51.040;13.680;2023-03-04T09:13:27;99977.63;;;15.93;51.79
25638;BME280;13496;51.040;13.680;2023-03-04T09:18:29;99971.28;;;15.96;51.58
25638;BME280;13496;51.040;13.680;2023-03-04T09:23:31;99967.19;;;15.93;51.85
25638;BME280;13496;51.040;13.680;2023-03-04T09:28:33;99975.69;;;15.95;51.33
25638;BME280;13496;51.040;13.680;2023-03-04T09:33:34;99963.72;;;16.01;51.71
25638;BME280;13496;51.040;13.680;2023-03-04T09:38:36;99976.81;;;16.01;51.31
25638;BME280;13496;51.040;13.680;2023-03-04T09:43:39;99966.84;;;15.96;51.72
25638;BME280;13496;51.040;13.680;2023-03-04T09:48:51;99968.47;;;15.97;51.51
25638;BME280;13496;51.040;13.680;2023-03-04T09:54:07;99960.63;;;16.06;51.83
25638;BME280;13496;51.040;13.680;2023-03-04T09:59:16;99950.97;;;16.06;51.84
25638;BME280;13496;51.040;13.680;2023-03-04T10:04:40;99952.94;;;16.04;50.79
25638;BME280;13496;51.040;13.680;2023-03-04T10:09:52;99941.81;;;16.10;51.27
25638;BME280;13496;51.040;13.680;2023-03-04T10:15:03;99942.28;;;16.14;51.76
25638;BME280;13496;51.040;13.680;2023-03-04T10:20:14;99935.41;;;16.13;51.97
25638;BME280;13496;51.040;13.680;2023-03-04T10:25:21;99937.34;;;16.19;51.13
25638;BME280;13496;51.040;13.680;2023-03-04T10:36:00;99930.81;;;16.23;51.35
25638;BME280;13496;51.040;13.680;2023-03-04T10:41:18;99929.19;;;16.22;51.56
25638;BME280;13496;51.040;13.680;2023-03-04T10:46:20;99922.63;;;16.26;51.14
25638;BME280;13496;51.040;13.680;2023-03-04T10:51:24;99926.38;;;16.24;51.44
25638;BME280;13496;51.040;13.680;2023-03-04T10:56:41;99922.81;;;16.25;51.31
25638;BME280;13496;51.040;13.680;2023-03-04T11:01:45;99931.63;;;16.24;51.52
25638;BME280;13496;51.040;13.680;2023-03-04T11:06:47;99920.03;;;16.18;51.62
25638;BME280;13496;51.040;13.680;2023-03-04T11:11:50;99915.78;;;16.17;51.44
25638;BME280;13496;51.040;13.680;2023-03-04T11:21:57;99918.22;;;16.18;51.91
25638;BME280;13496;51.040;13.680;2023-03-04T11:27:41;99916.41;;;16.19;52.12
25638;BME280;13496;51.040;13.680;2023-03-04T11:32:39;99908.22;;;16.22;51.85
25638;BME280;13496;51.040;13.680;2023-03-04T11:37:53;99899.56;;;16.21;51.85
25638;BME280;13496;51.040;13.680;2023-03-04T11:43:06;99908.56;;;16.19;51.94
25638;BME280;13496;51.040;13.680;2023-03-04T11:48:20;99896.94;;;16.21;52.00
25638;BME280;13496;51.040;13.680;2023-03-04T11:53:32;99892.53;;;16.22;52.17
25638;BME280;13496;51.040;13.680;2023-03-04T12:04:06;99886.63;;;16.28;51.83
25638;BME280;13496;51.040;13.680;2023-03-04T12:20:51;99867.81;;;16.25;52.14
25638;BME280;13496;51.040;13.680;2023-03-04T12:26:02;99861.78;;;16.24;52.33
25638;BME280;13496;51.040;13.680;2023-03-04T12:37:03;99836.19;;;16.34;52.05
25638;BME280;13496;51.040;13.680;2023-03-04T12:42:42;99839.31;;;16.30;52.04
25638;BME280;13496;51.040;13.680;2023-03-04T12:58:48;99834.75;;;16.32;52.17
25638;BME280;13496;51.040;13.680;2023-03-04T13:04:05;99823.09;;;16.34;51.89
25638;BME280;13496;51.040;13.680;2023-03-04T13:09:30;99818.56;;;16.28;52.23
25638;BME280;13496;51.040;13.680;2023-03-04T13:14:33;99818.91;;;16.25;51.94
25638;BME280;13496;51.040;13.680;2023-03-04T13:19:56;99820.84;;;16.23;52.23
25638;BME280;13496;51.040;13.680;2023-03-04T13:25:02;99813.66;;;16.25;51.89
25638;BME280;13496;51.040;13.680;2023-03-04T13:51:40;99789.38;;;16.31;51.36
25638;BME280;13496;51.040;13.680;2023-03-04T13:56:48;99776.78;;;16.35;51.83
25638;BME280;13496;51.040;13.680;2023-03-04T14:02:20;99782.47;;;16.38;51.66
25638;BME280;13496;51.040;13.680;2023-03-04T14:12:31;99785.75;;;16.40;48.84
25638;BME280;13496;51.040;13.680;2023-03-04T14:17:34;99780.50;;;16.40;51.00
25638;BME280;13496;51.040;13.680;2023-03-04T14:22:39;99775.28;;;16.40;51.00
25638;BME280;13496;51.040;13.680;2023-03-04T14:27:41;99775.91;;;16.42;51.07
25638;BME280;13496;51.040;13.680;2023-03-04T14:32:42;99775.09;;;16.42;51.19
25638;BME280;13496;51.040;13.680;2023-03-04T14:37:54;99769.38;;;16.38;51.00
25638;BME280;13496;51.040;13.680;2023-03-04T14:43:05;99765.28;;;16.44;51.00
25638;BME280;13496;51.040;13.680;2023-03-04T14:48:16;99768.41;;;16.39;49.03
25638;BME280;13496;51.040;13.680;2023-03-04T14:53:22;99768.41;;;16.39;50.17
25638;BME280;13496;51.040;13.680;2023-03-04T14:58:29;99765.81;;;16.31;51.75
25638;BME280;13496;51.040;13.680;2023-03-04T15:03:32;99766.19;;;16.28;51.48
25638;BME280;13496;51.040;13.680;2023-03-04T15:08:40;99770.81;;;16.18;49.54
25638;BME280;13496;51.040;13.680;2023-03-04T15:13:44;99759.22;;;16.20;50.25
25638;BME280;13496;51.040;13.680;2023-03-04T15:19:03;99763.56;;;16.28;51.73
25638;BME280;13496;51.040;13.680;2023-03-04T15:24:08;99760.00;;;16.21;49.51
25638;BME280;13496;51.040;13.680;2023-03-04T15:29:16;99757.00;;;16.32;51.19
25638;BME280;13496;51.040;13.680;2023-03-04T15:34:19;99758.97;;;16.30;51.51
25638;BME280;13496;51.040;13.680;2023-03-04T15:39:21;99769.19;;;16.17;50.47
25638;BME280;13496;51.040;13.680;2023-03-04T15:44:23;99764.25;;;16.22;50.90
25638;BME280;13496;51.040;13.680;2023-03-04T15:49:25;99773.09;;;16.21;51.87
25638;BME280;13496;51.040;13.680;2023-03-04T15:54:27;99768.03;;;16.19;51.29
25638;BME280;13496;51.040;13.680;2023-03-04T15:59:29;99782.44;;;16.15;50.56
25638;BME280;13496;51.040;13.680;2023-03-04T16:04:31;99784.19;;;16.23;52.06
25638;BME280;13496;51.040;13.680;2023-03-04T16:09:33;99776.34;;;16.23;52.57
25638;BME280;13496;51.040;13.680;2023-03-04T16:14:34;99774.91;;;16.20;52.27
25638;BME280;13496;51.040;13.680;2023-03-04T16:19:36;99771.44;;;16.20;52.47
25638;BME280;13496;51.040;13.680;2023-03-04T16:24:37;99765.59;;;16.18;52.55
25638;BME280;13496;51.040;13.680;2023-03-04T16:29:40;99773.09;;;16.21;52.44
25638;BME280;13496;51.040;13.680;2023-03-04T16:34:41;99768.84;;;16.20;52.42
25638;BME280;13496;51.040;13.680;2023-03-04T16:39:43;99775.72;;;16.21;52.46
25638;BME280;13496;51.040;13.680;2023-03-04T16:44:47;99779.97;;;16.22;53.14
25638;BME280;13496;51.040;13.680;2023-03-04T16:49:49;99790.78;;;16.19;52.24
25638;BME280;13496;51.040;13.680;2023-03-04T16:54:51;99788.16;;;16.19;52.85
25638;BME280;13496;51.040;13.680;2023-03-04T16:59:53;99776.06;;;16.18;52.69
25638;BME280;13496;51.040;13.680;2023-03-04T17:04:55;99791.75;;;16.18;52.28
25638;BME280;13496;51.040;13.680;2023-03-04T17:09:58;99785.72;;;16.17;52.99
25638;BME280;13496;51.040;13.680;2023-03-04T17:15:00;99787.53;;;16.17;52.83
25638;BME280;13496;51.040;13.680;2023-03-04T17:20:05;99791.09;;;16.16;52.80
25638;BME280;13496;51.040;13.680;2023-03-04T17:25:08;99796.19;;;16.17;52.91
25638;BME280;13496;51.040;13.680;2023-03-04T17:30:11;99808.47;;;16.17;52.72
25638;BME280;13496;51.040;13.680;2023-03-04T17:35:13;99805.00;;;16.16;52.18
25638;BME280;13496;51.040;13.680;2023-03-04T17:40:15;99806.81;;;16.16;52.89
25638;BME280;13496;51.040;13.680;2023-03-04T17:45:17;99804.38;;;16.14;52.78
25638;BME280;13496;51.040;13.680;2023-03-04T17:50:18;99809.75;;;16.13;52.74
25638;BME280;13496;51.040;13.680;2023-03-04T17:55:21;99817.63;;;16.13;52.92
25638;BME280;13496;51.040;13.680;2023-03-04T18:00:23;99803.56;;;16.14;52.98
25638;BME280;13496;51.040;13.680;2023-03-04T18:05:24;99806.19;;;16.14;53.11
25638;BME280;13496;51.040;13.680;2023-03-04T18:10:26;99801.91;;;16.13;53.26
25638;BME280;13496;51.040;13.680;2023-03-04T18:15:28;99806.19;;;16.14;52.81
25638;BME280;13496;51.040;13.680;2023-03-04T18:20:31;99810.25;;;16.16;53.40
25638;BME280;13496;51.040;13.680;2023-03-04T18:25:33;99802.56;;;16.15;53.15
25638;BME280;13496;51.040;13.680;2023-03-04T18:30:42;99814.66;;;16.16;53.38
25638;BME280;13496;51.040;13.680;2023-03-04T18:35:44;99807.81;;;16.15;53.15
25638;BME280;13496;51.040;13.680;2023-03-04T18:40:45;99817.63;;;16.13;53.33
25638;BME280;13496;51.040;13.680;2023-03-04T18:45:47;99807.00;;;16.14;53.74
25638;BME280;13496;51.040;13.680;2023-03-04T18:50:49;99813.84;;;16.15;54.18
25638;BME280;13496;51.040;13.680;2023-03-04T18:55:50;99819.09;;;16.15;53.71
25638;BME280;13496;51.040;13.680;2023-03-04T19:00:53;99797.66;;;16.12;52.85
25638;BME280;13496;51.040;13.680;2023-03-04T19:05:55;99823.69;;;16.13;53.33
25638;BME280;13496;51.040;13.680;2023-03-04T19:10:57;99816.00;;;16.12;53.57
25638;BME280;13496;51.040;13.680;2023-03-04T19:15:59;99825.47;;;16.13;53.34
25638;BME280;13496;51.040;13.680;2023-03-04T19:21:01;99820.22;;;16.13;53.77
25638;BME280;13496;51.040;13.680;2023-03-04T19:26:05;99819.28;;;16.14;53.69
25638;BME280;13496;51.040;13.680;2023-03-04T19:31:09;99819.28;;;16.14;53.58
25638;BME280;13496;51.040;13.680;2023-03-04T19:36:11;99816.19;;;16.10;53.41
25638;BME280;13496;51.040;13.680;2023-03-04T19:41:14;99821.88;;;16.14;53.43
25638;BME280;13496;51.040;13.680;2023-03-04T19:46:16;99825.47;;;16.13;53.71
25638;BME280;13496;51.040;13.680;2023-03-04T19:51:20;99817.63;;;16.13;53.39
25638;BME280;13496;51.040;13.680;2023-03-04T19:56:23;99823.03;;;16.11;53.56
25638;BME280;13496;51.040;13.680;2023-03-04T20:01:27;99822.84;;;16.13;53.69
25638;BME280;13496;51.040;13.680;2023-03-04T20:06:30;99832.34;;;16.14;54.44
25638;BME280;13496;51.040;13.680;2023-03-04T20:11:32;99828.09;;;16.13;53.73
25638;BME280;13496;51.040;13.680;2023-03-04T20:16:33;99830.56;;;16.14;54.63
25638;BME280;13496;51.040;13.680;2023-03-04T20:21:35;99833.97;;;16.15;54.58
25638;BME280;13496;51.040;13.680;2023-03-04T20:26:37;99829.75;;;16.14;54.18
25638;BME280;13496;51.040;13.680;2023-03-04T20:31:39;99832.34;;;16.14;55.04
25638;BME280;13496;51.040;13.680;2023-03-04T20:36:41;99834.16;;;16.13;54.34
25638;BME280;13496;51.040;13.680;2023-03-04T20:41:43;99827.13;;;16.14;54.69
25638;BME280;13496;51.040;13.680;2023-03-04T20:46:44;99829.56;;;16.15;54.94
25638;BME280;13496;51.040;13.680;2023-03-04T20:51:47;99828.75;;;16.15;54.29
25638;BME280;13496;51.040;13.680;2023-03-04T20:56:49;99818.94;;;16.17;54.67
25638;BME280;13496;51.040;13.680;2023-03-04T21:01:51;99821.56;;;16.17;54.98
25638;BME280;13496;51.040;13.680;2023-03-04T21:06:53;99814.50;;;16.17;55.01
25638;BME280;13496;51.040;13.680;2023-03-04T21:11:54;99814.66;;;16.16;54.67
25638;BME280;13496;51.040;13.680;2023-03-04T21:16:59;99806.19;;;16.14;55.00
25638;BME280;13496;51.040;13.680;2023-03-04T21:22:02;99811.09;;;16.17;54.91
25638;BME280;13496;51.040;13.680;2023-03-04T21:27:04;99815.47;;;16.16;54.79
25638;BME280;13496;51.040;13.680;2023-03-04T21:32:20;99813.03;;;16.15;54.82
25638;BME280;13496;51.040;13.680;2023-03-04T21:37:24;99810.41;;;16.15;54.98
25638;BME280;13496;51.040;13.680;2023-03-04T21:42:25;99806.66;;;16.17;55.00
25638;BME280;13496;51.040;13.680;2023-03-04T21:47:27;99815.47;;;16.16;55.19
25638;BME280;13496;51.040;13.680;2023-03-04T21:52:29;99803.38;;;16.15;54.59
25638;BME280;13496;51.040;13.680;2023-03-04T21:57:30;99803.22;;;16.17;54.90
25638;BME280;13496;51.040;13.680;2023-03-04T22:02:33;99805.19;;;16.15;54.73
25638;BME280;13496;51.040;13.680;2023-03-04T22:07:35;99791.28;;;16.14;54.73
25638;BME280;13496;51.040;13.680;2023-03-04T22:12:36;99795.38;;;16.17;54.91
25638;BME280;13496;51.040;13.680;2023-03-04T22:17:38;99789.47;;;16.15;54.65
25638;BME280;13496;51.040;13.680;2023-03-04T22:22:40;99784.91;;;16.17;54.88
25638;BME280;13496;51.040;13.680;2023-03-04T22:27:41;99772.97;;;16.14;54.74
25638;BME280;13496;51.040;13.680;2023-03-04T22:32:44;99776.59;;;16.13;54.76
25638;BME280;13496;51.040;13.680;2023-03-04T22:37:45;99774.13;;;16.12;55.02
25638;BME280;13496;51.040;13.680;2023-03-04T22:42:47;99769.53;;;16.14;54.76
25638;BME280;13496;51.040;13.680;2023-03-04T22:47:50;99774.94;;;16.12;55.03
25638;BME280;13496;51.040;13.680;2023-03-04T22:52:52;99767.44;;;16.09;54.24
25638;BME280;13496;51.040;13.680;2023-03-04T22:57:54;99774.94;;;16.12;54.78
25638;BME280;13496;51.040;13.680;2023-03-04T23:02:56;99775.75;;;16.13;54.75
25638;BME280;13496;51.040;13.680;2023-03-04T23:07:58;99767.25;;;16.11;54.53
25638;BME280;13496;51.040;13.680;2023-03-04T23:13:00;99766.25;;;16.12;54.73
25638;BME280;13496;51.040;13.680;2023-03-04T23:18:01;99764.66;;;16.11;54.39
25638;BME280;13496;51.040;13.680;2023-03-04T23:23:03;99765.28;;;16.13;54.60
25638;BME280;13496;51.040;13.680;2023-03-04T23:28:05;99762.03;;;16.11;54.34
25638;BME280;13496;51.040;13.680;2023-03-04T23:33:06;99749.28;;;16.08;54.21
25638;BME280;13496;51.040;13.680;2023-03-04T23:38:08;99749.94;;;16.10;54.44
25638;BME280;13496;51.040;13.680;2023-03-04T23:43:09;99752.06;;;16.06;53.58
25638;BME280;13496;51.040;13.680;2023-03-04T23:48:11;99749.28;;;16.08;54.68
25638;BME280;13496;51.040;13.680;2023-03-04T23:53:13;99745.66;;;16.09;54.66
25638;BME280;13496;51.040;13.680;2023-03-04T23:58:14;99749.28;;;16.08;54.44
